Iron Mountain, MI

11:56 AM CDT on April 25, 2015 (GMT -0500)
Delta County | | Change Station
CLOSE
Current Station
Airport
Location: Escanaba,
Elevation: 607 ft
Nearby Weather Stations

Elev 607 ft 45.72 °N, 87.09 °W | Updated 21 minutes ago

Overcast
Overcast
45 °F
Feels Like 39 °F
N
12
Wind Variable Wind from East

Today
High -- | Low -- °F
--% Chance of Precip.
Yesterday
High -- | Low -- °F
Precip. -- in
5:49 AM 7:51 PM
Waxing Crescent, 47% visible
Pressure 29.98 in
Visibility 10.0 miles
Clouds Clear
Windchill 39 °F
Dew Point 19 °F
Humidity 37%
Rainfall 0.00 in
Snow Depth Not available.
UV 8 out of 12
Pollen 8.40 out of 12
Air Quality Not available.
Flu Activity Regional
METAR KESC 251635Z AUTO 10010KT 10SM CLR 07/M07 A2998 RMK AO1

More Conditions Fewer Conditions

Pressure 29.98 in
Visibility 10.0 miles
Clouds Clear
Windchill 39 °F
Dew Point 19 °F
Humidity 37%
Rainfall 0.00 in
Snow Depth Not available.
UV 8 out of 12
Pollen 8.40 out of 12
Air Quality Not available.
Flu Activity Regional
METAR KESC 251635Z AUTO 10010KT 10SM CLR 07/M07 A2998 RMK AO1

More Conditions Fewer Conditions

10-Day Weather Forecast

Almanac

Astronomy

Apr. 25, 2015 Rise Set
Actual Time
Civil Twilight
Nautical Twilight
Astronomical Twilight
Moon
Length of Visible Light
Length of Day
Tomorrow will be .
, % of the Moon is Illuminated

Today's Extremes

State Highs State Lows

Community

WunderPhotos

Upload Photos

1,816,737 photos uploaded!

WunderBlogs® & News

Nearby

Air Quality

  Air Quality AQ Index Pollutant
Not available.

Snow Depth

Station Depth Elevation

Earthquake Activity

City Distance Mag. Time & Date
Minimum magnitude displayed is 2.5.

Coastal Water Temperatures

Place Temperature

Stations

Nearby Weather Stations

Station Location Temp. Windchill Dew Point Humidity Wind Precip. Elev Updated Type